createdAt,value
2019-01-26T00:00:00.260Z,3.30
2019-01-26T00:02:06.681Z,3.40
2019-01-26T00:04:11.527Z,3.30
2019-01-26T00:06:16.305Z,3.30
2019-01-26T00:08:21.211Z,3.40
2019-01-26T00:10:26.391Z,3.40
2019-01-26T00:12:31.362Z,3.40
2019-01-26T00:14:36.524Z,3.40
2019-01-26T00:16:41.631Z,3.40
2019-01-26T00:18:46.422Z,3.40
2019-01-26T00:20:51.364Z,3.40
2019-01-26T00:22:56.094Z,3.50
2019-01-26T00:25:00.938Z,3.50
2019-01-26T00:27:05.688Z,3.60
2019-01-26T00:29:10.391Z,3.60
2019-01-26T00:31:15.556Z,3.50
2019-01-26T00:33:20.876Z,3.50
2019-01-26T00:35:25.693Z,3.60
2019-01-26T00:37:31.067Z,3.60
2019-01-26T00:39:36.234Z,3.60
2019-01-26T00:41:41.002Z,3.60
2019-01-26T00:43:46.107Z,3.60
2019-01-26T00:45:50.850Z,3.60
2019-01-26T00:47:55.664Z,3.60
2019-01-26T00:50:00.462Z,3.60
2019-01-26T00:52:05.188Z,3.60
2019-01-26T00:54:10.091Z,3.60
2019-01-26T00:56:14.809Z,3.60
2019-01-26T00:58:23.547Z,3.70
2019-01-26T01:00:26.385Z,3.70
2019-01-26T01:02:31.142Z,3.70
2019-01-26T01:04:36.393Z,3.70
2019-01-26T01:06:41.147Z,3.70
2019-01-26T01:08:46.003Z,3.70
2019-01-26T01:10:51.161Z,3.80
2019-01-26T01:12:56.159Z,3.80
2019-01-26T01:15:00.928Z,3.80
2019-01-26T01:17:06.057Z,3.90
2019-01-26T01:19:10.870Z,3.80
2019-01-26T01:21:15.720Z,3.90
2019-01-26T01:23:20.551Z,3.90
2019-01-26T01:25:25.334Z,3.90
2019-01-26T01:27:30.229Z,4.00
2019-01-26T01:29:35.244Z,3.90
2019-01-26T01:31:41.249Z,4.00
2019-01-26T01:33:46.110Z,3.90
2019-01-26T01:35:50.883Z,3.90
2019-01-26T01:37:55.986Z,4.00
2019-01-26T01:40:01.470Z,4.00
2019-01-26T01:42:06.290Z,4.00
2019-01-26T01:44:11.076Z,4.00
2019-01-26T01:46:16.163Z,4.00
2019-01-26T01:48:20.917Z,4.10
2019-01-26T01:50:26.117Z,4.10
2019-01-26T01:52:30.973Z,4.10
2019-01-26T01:54:35.756Z,4.10
2019-01-26T01:56:40.646Z,4.10
2019-01-26T01:58:45.760Z,4.10
2019-01-26T02:00:50.481Z,4.20
2019-01-26T02:02:55.316Z,4.20
2019-01-26T02:05:00.133Z,4.20
2019-01-26T02:07:05.036Z,4.10
2019-01-26T02:09:10.710Z,4.20
2019-01-26T02:11:15.453Z,4.20
2019-01-26T02:13:20.231Z,4.20
2019-01-26T02:15:25.079Z,4.20
2019-01-26T02:17:29.824Z,4.30
2019-01-26T02:19:34.957Z,4.20
2019-01-26T02:21:40.436Z,4.30
2019-01-26T02:23:45.377Z,4.30
2019-01-26T02:25:50.236Z,4.30
2019-01-26T02:27:55.057Z,4.30
2019-01-26T02:30:00.336Z,4.30
2019-01-26T02:32:05.390Z,4.40
2019-01-26T02:34:10.140Z,4.40
2019-01-26T02:36:15.112Z,4.40
2019-01-26T02:38:20.488Z,4.40
2019-01-26T02:40:25.247Z,4.50
2019-01-26T02:42:30.100Z,4.40
2019-01-26T02:44:34.840Z,4.50
2019-01-26T02:46:39.593Z,4.50
2019-01-26T02:48:44.347Z,4.50
2019-01-26T02:50:49.163Z,4.50
2019-01-26T02:52:54.352Z,4.50
2019-01-26T02:54:59.378Z,4.50
2019-01-26T02:57:04.130Z,4.50
2019-01-26T02:59:09.248Z,4.50
2019-01-26T03:01:14.012Z,4.50
2019-01-26T03:03:18.692Z,4.50
2019-01-26T03:05:23.838Z,4.60
2019-01-26T03:07:28.546Z,4.60
2019-01-26T03:09:33.337Z,4.60
2019-01-26T03:11:38.400Z,4.60
2019-01-26T03:13:43.407Z,4.60
2019-01-26T03:15:48.189Z,4.70
2019-01-26T03:17:52.938Z,4.70
2019-01-26T03:19:57.648Z,4.70
2019-01-26T03:22:02.460Z,4.70
2019-01-26T03:24:07.227Z,4.70
2019-01-26T03:26:12.094Z,4.70
2019-01-26T03:28:17.173Z,4.70
2019-01-26T03:30:24.116Z,4.70
2019-01-26T03:32:29.270Z,4.70
2019-01-26T03:34:34.113Z,4.70
2019-01-26T03:36:38.993Z,4.70
2019-01-26T03:38:43.771Z,4.70
2019-01-26T03:40:48.511Z,4.70
2019-01-26T03:42:54.040Z,4.80
2019-01-26T03:44:58.758Z,4.80
2019-01-26T03:47:03.524Z,4.80
2019-01-26T03:49:08.933Z,4.80
2019-01-26T03:51:13.903Z,4.80
2019-01-26T03:53:18.663Z,4.80
2019-01-26T03:55:23.639Z,4.80
2019-01-26T03:57:28.355Z,4.80
2019-01-26T03:59:33.163Z,4.80
2019-01-26T04:01:38.072Z,4.80
2019-01-26T04:03:43.046Z,4.80
2019-01-26T04:05:47.958Z,4.80
2019-01-26T04:07:52.795Z,4.90
2019-01-26T04:09:57.682Z,4.90
2019-01-26T04:12:02.427Z,4.90
2019-01-26T04:14:07.489Z,4.90
2019-01-26T04:16:12.409Z,4.90
2019-01-26T04:18:17.712Z,4.90
2019-01-26T04:20:22.901Z,4.90
2019-01-26T04:22:27.675Z,4.90
2019-01-26T04:24:33.106Z,4.90
2019-01-26T04:26:38.155Z,4.90
2019-01-26T04:28:43.082Z,5.00
2019-01-26T04:30:47.816Z,5.00
2019-01-26T04:32:52.580Z,5.00
2019-01-26T04:34:57.340Z,5.00
2019-01-26T04:37:02.220Z,5.00
2019-01-26T04:39:09.069Z,5.00
2019-01-26T04:41:14.453Z,5.00
2019-01-26T04:43:19.218Z,5.00
2019-01-26T04:45:25.014Z,5.00
2019-01-26T04:47:30.822Z,5.00
2019-01-26T04:49:36.017Z,5.10
2019-01-26T04:51:41.044Z,5.10
2019-01-26T04:53:45.827Z,5.10
2019-01-26T04:55:50.587Z,5.10
2019-01-26T04:57:55.319Z,5.10
2019-01-26T05:00:00.142Z,5.10
2019-01-26T05:02:05.194Z,5.10
2019-01-26T05:04:09.948Z,5.20
2019-01-26T05:06:14.806Z,5.20
2019-01-26T05:08:19.805Z,5.10
2019-01-26T05:10:24.858Z,5.20
2019-01-26T05:12:29.812Z,5.20
2019-01-26T05:14:34.976Z,5.20
2019-01-26T05:16:39.750Z,5.20
2019-01-26T05:18:44.528Z,5.20
2019-01-26T05:20:49.236Z,5.20
2019-01-26T05:22:54.045Z,5.20
2019-01-26T05:24:58.756Z,5.20
2019-01-26T05:27:03.591Z,5.30
2019-01-26T05:29:09.806Z,5.20
2019-01-26T05:31:14.882Z,5.30
2019-01-26T05:33:19.710Z,5.30
2019-01-26T05:35:24.675Z,5.30
2019-01-26T05:37:29.748Z,5.40
2019-01-26T05:39:35.145Z,5.30
2019-01-26T05:41:40.033Z,5.30
2019-01-26T05:43:44.868Z,5.40
2019-01-26T05:45:49.847Z,5.30
2019-01-26T05:47:54.523Z,5.40
2019-01-26T05:49:59.209Z,5.40
2019-01-26T05:52:03.988Z,5.40
2019-01-26T05:54:09.000Z,5.40
2019-01-26T05:56:14.198Z,5.40
2019-01-26T05:58:20.096Z,5.40
2019-01-26T06:00:31.898Z,5.40
2019-01-26T06:02:36.677Z,5.40
2019-01-26T06:04:44.362Z,5.40
2019-01-26T06:06:50.143Z,5.40
2019-01-26T06:08:55.177Z,5.40
2019-01-26T06:11:01.147Z,5.40
2019-01-26T06:13:06.134Z,5.50
2019-01-26T06:15:11.595Z,5.50
2019-01-26T06:17:18.450Z,5.50
2019-01-26T06:19:23.576Z,5.50
2019-01-26T06:21:30.924Z,5.50
2019-01-26T06:23:36.088Z,5.50
2019-01-26T06:25:41.154Z,5.50
2019-01-26T06:27:46.067Z,5.50
2019-01-26T06:29:51.147Z,5.50
2019-01-26T06:31:57.016Z,5.50
2019-01-26T06:34:04.251Z,5.50
2019-01-26T06:36:09.693Z,5.50
2019-01-26T06:38:16.212Z,5.40
2019-01-26T06:40:22.150Z,5.50
2019-01-26T06:42:27.019Z,5.50
2019-01-26T06:44:34.221Z,5.50
2019-01-26T06:46:39.009Z,5.40
2019-01-26T06:48:44.312Z,5.40
2019-01-26T06:50:49.037Z,5.50
2019-01-26T06:52:53.865Z,5.50
2019-01-26T06:54:58.740Z,5.50
2019-01-26T06:57:03.853Z,5.50
2019-01-26T06:59:08.694Z,5.50
2019-01-26T07:01:13.606Z,5.50
2019-01-26T07:03:41.557Z,5.50
2019-01-26T07:06:08.783Z,5.50
2019-01-26T07:08:18.561Z,5.50
2019-01-26T07:10:23.414Z,5.50
2019-01-26T07:12:28.484Z,5.50
2019-01-26T07:14:33.310Z,5.50
2019-01-26T07:16:38.230Z,5.50
2019-01-26T07:18:43.392Z,5.50
2019-01-26T07:20:48.324Z,5.50
2019-01-26T07:22:53.424Z,5.50
2019-01-26T07:24:58.459Z,5.50
2019-01-26T07:27:03.366Z,5.50
2019-01-26T07:29:08.185Z,5.50
2019-01-26T07:31:12.946Z,5.60
2019-01-26T07:33:19.041Z,5.50
2019-01-26T07:35:23.919Z,5.60
2019-01-26T07:37:28.704Z,5.60
2019-01-26T07:39:34.255Z,5.60
2019-01-26T07:41:39.069Z,5.60
2019-01-26T07:43:44.690Z,5.60
2019-01-26T07:45:57.691Z,5.60
2019-01-26T07:48:02.732Z,5.60
2019-01-26T07:50:09.986Z,5.60
2019-01-26T07:52:14.733Z,5.60
2019-01-26T07:54:19.835Z,5.60
2019-01-26T07:56:25.051Z,5.60
2019-01-26T07:58:30.104Z,5.60
2019-01-26T08:00:53.643Z,5.60
2019-01-26T08:02:58.485Z,5.60
2019-01-26T08:05:03.383Z,5.60
2019-01-26T08:07:08.207Z,5.60
2019-01-26T08:09:13.035Z,5.60
2019-01-26T08:11:18.127Z,5.60
2019-01-26T08:13:23.600Z,5.60
2019-01-26T08:15:33.850Z,5.60
2019-01-26T08:17:38.938Z,5.60
2019-01-26T08:19:43.665Z,5.60
2019-01-26T08:21:48.549Z,5.60
2019-01-26T08:23:53.985Z,5.60
2019-01-26T08:25:59.135Z,5.60
2019-01-26T08:28:06.508Z,5.60
2019-01-26T08:30:13.979Z,5.70
2019-01-26T08:32:18.808Z,5.70
2019-01-26T08:34:23.652Z,5.60
2019-01-26T08:36:28.468Z,5.70
2019-01-26T08:38:33.223Z,5.60
2019-01-26T08:40:38.035Z,5.60
2019-01-26T08:42:43.090Z,5.60
2019-01-26T08:44:47.885Z,5.60
2019-01-26T08:46:52.702Z,5.60
2019-01-26T08:48:57.824Z,5.60
2019-01-26T08:51:02.924Z,5.60
2019-01-26T08:53:08.035Z,5.60
2019-01-26T08:55:18.130Z,5.70
2019-01-26T08:57:19.747Z,5.70
2019-01-26T08:59:25.522Z,5.70
2019-01-26T09:01:30.282Z,5.70
2019-01-26T09:03:52.748Z,5.70
2019-01-26T09:06:03.502Z,5.70
2019-01-26T09:08:08.406Z,5.70
2019-01-26T09:10:15.578Z,5.70
2019-01-26T09:12:20.842Z,5.70
2019-01-26T09:14:27.809Z,5.70
2019-01-26T09:16:35.989Z,5.70
2019-01-26T09:18:43.583Z,5.70
2019-01-26T09:20:48.734Z,5.70
2019-01-26T09:22:53.491Z,5.70
2019-01-26T09:24:58.907Z,5.70
2019-01-26T09:27:03.737Z,5.70
2019-01-26T09:29:08.808Z,5.80
2019-01-26T09:31:16.923Z,5.80
2019-01-26T09:33:22.208Z,5.80
2019-01-26T09:35:27.033Z,5.80
2019-01-26T09:37:31.967Z,5.80
2019-01-26T09:39:37.071Z,5.90
2019-01-26T09:41:44.156Z,5.90
2019-01-26T09:43:49.492Z,5.90
2019-01-26T09:45:54.251Z,5.90
2019-01-26T09:47:59.140Z,5.90
2019-01-26T09:50:04.647Z,5.90
2019-01-26T09:52:09.553Z,5.90
2019-01-26T09:54:14.339Z,5.90
2019-01-26T09:56:19.162Z,5.90
2019-01-26T09:58:24.324Z,5.90
2019-01-26T10:00:29.224Z,5.90
2019-01-26T10:02:36.999Z,5.90
2019-01-26T10:04:42.654Z,5.90
2019-01-26T10:06:47.396Z,5.90
2019-01-26T10:08:52.305Z,5.90
2019-01-26T10:10:57.032Z,6.00
2019-01-26T10:13:02.127Z,6.00
2019-01-26T10:15:08.514Z,6.00
2019-01-26T10:17:13.185Z,6.00
2019-01-26T10:19:18.028Z,6.00
2019-01-26T10:21:22.787Z,6.00
2019-01-26T10:23:27.533Z,6.10
2019-01-26T10:25:32.438Z,6.00
2019-01-26T10:27:37.214Z,6.10
2019-01-26T10:29:42.469Z,6.10
2019-01-26T10:31:47.304Z,6.10
2019-01-26T10:33:52.091Z,6.20
2019-01-26T10:36:18.807Z,6.20
2019-01-26T10:38:23.607Z,6.20
2019-01-26T10:40:50.569Z,6.30
2019-01-26T10:42:55.986Z,6.30
2019-01-26T10:45:01.109Z,6.40
2019-01-26T10:47:05.977Z,6.40
2019-01-26T10:49:10.703Z,6.40
2019-01-26T10:51:17.296Z,6.50
2019-01-26T10:53:22.481Z,6.50
2019-01-26T10:55:27.225Z,6.60
2019-01-26T10:57:32.272Z,6.70
2019-01-26T10:59:37.214Z,6.70
2019-01-26T11:01:41.930Z,6.80
2019-01-26T11:03:46.726Z,6.80
2019-01-26T11:05:52.550Z,7.00
2019-01-26T11:07:57.779Z,7.10
2019-01-26T11:10:02.557Z,7.20
2019-01-26T11:12:07.374Z,7.30
2019-01-26T11:14:12.536Z,7.40
2019-01-26T11:16:20.005Z,7.30
2019-01-26T11:18:24.773Z,7.30
2019-01-26T11:20:29.788Z,7.30
2019-01-26T11:22:34.579Z,7.40
2019-01-26T11:24:39.711Z,7.50
2019-01-26T11:26:49.209Z,7.30
2019-01-26T11:28:51.783Z,7.30
2019-01-26T11:30:57.430Z,7.30
2019-01-26T11:33:02.411Z,7.40
2019-01-26T11:35:08.780Z,7.50
2019-01-26T11:37:13.698Z,7.60
2019-01-26T11:39:18.734Z,7.60
2019-01-26T11:41:23.506Z,7.70
2019-01-26T11:43:28.504Z,7.80
2019-01-26T11:45:48.365Z,7.90
2019-01-26T11:47:54.345Z,7.90
2019-01-26T11:50:00.719Z,7.90
2019-01-26T11:52:09.711Z,7.90
2019-01-26T11:54:14.553Z,7.90
2019-01-26T11:56:35.255Z,8.00
2019-01-26T11:58:40.161Z,8.20
2019-01-26T12:01:07.156Z,8.20
2019-01-26T12:03:24.841Z,8.20
2019-01-26T12:05:48.638Z,8.20
2019-01-26T12:07:53.713Z,8.30
2019-01-26T12:10:01.404Z,8.30
2019-01-26T12:12:06.644Z,8.30
2019-01-26T12:14:11.481Z,8.40
2019-01-26T12:16:16.382Z,8.30
2019-01-26T12:18:21.372Z,8.30
2019-01-26T12:20:27.366Z,8.30
2019-01-26T12:22:32.193Z,8.20
2019-01-26T12:24:36.909Z,8.20
2019-01-26T12:26:41.799Z,8.20
2019-01-26T12:28:46.990Z,8.20
2019-01-26T12:30:51.736Z,8.10
2019-01-26T12:32:57.097Z,8.20
2019-01-26T12:35:01.938Z,8.10
2019-01-26T12:37:06.773Z,8.10
2019-01-26T12:39:12.833Z,8.00
2019-01-26T12:41:17.785Z,8.00
2019-01-26T12:43:22.572Z,8.00
2019-01-26T12:45:27.422Z,8.10
2019-01-26T12:47:32.126Z,8.10
2019-01-26T12:49:36.872Z,8.00
2019-01-26T12:51:41.782Z,8.00
2019-01-26T12:53:46.683Z,7.90
2019-01-26T12:55:51.762Z,7.90
2019-01-26T12:57:56.538Z,7.80
2019-01-26T13:00:01.309Z,7.80
2019-01-26T13:02:06.918Z,7.80
2019-01-26T13:04:11.843Z,7.80
2019-01-26T13:06:16.597Z,7.60
2019-01-26T13:08:21.532Z,7.50
2019-01-26T13:10:30.019Z,7.50
2019-01-26T13:12:34.833Z,7.50
2019-01-26T13:14:39.775Z,7.60
2019-01-26T13:16:44.929Z,7.70
2019-01-26T13:18:49.666Z,7.70
2019-01-26T13:20:54.906Z,7.80
2019-01-26T13:22:59.707Z,7.80
2019-01-26T13:25:05.912Z,7.90
2019-01-26T13:27:10.645Z,7.80
2019-01-26T13:29:15.409Z,7.80
2019-01-26T13:31:20.331Z,7.90
2019-01-26T13:33:25.083Z,7.90
2019-01-26T13:35:29.979Z,7.90
2019-01-26T13:37:34.951Z,7.90
2019-01-26T13:39:39.773Z,7.90
2019-01-26T13:41:45.060Z,7.90
2019-01-26T13:43:50.186Z,7.90
2019-01-26T13:45:55.020Z,7.90
2019-01-26T13:47:59.904Z,8.00
2019-01-26T13:50:04.842Z,8.00
2019-01-26T13:52:09.629Z,8.00
2019-01-26T13:54:14.347Z,7.90
2019-01-26T13:56:19.131Z,7.90
2019-01-26T13:58:23.991Z,7.80
2019-01-26T14:00:30.384Z,7.80
2019-01-26T14:02:35.519Z,7.80
2019-01-26T14:04:40.286Z,7.60
2019-01-26T14:06:45.211Z,7.60
2019-01-26T14:08:50.017Z,7.50
2019-01-26T14:10:54.817Z,7.50
2019-01-26T14:12:59.708Z,7.50
2019-01-26T14:15:04.700Z,7.60
2019-01-26T14:17:09.430Z,7.60
2019-01-26T14:19:14.227Z,7.60
2019-01-26T14:21:19.054Z,7.50
2019-01-26T14:23:24.240Z,7.40
2019-01-26T14:25:29.008Z,7.40
2019-01-26T14:27:37.129Z,7.30
2019-01-26T14:29:42.504Z,7.30
2019-01-26T14:31:47.260Z,7.30
2019-01-26T14:33:52.068Z,7.20
2019-01-26T14:35:57.369Z,7.20
2019-01-26T14:38:02.456Z,7.10
2019-01-26T14:40:07.544Z,7.10
2019-01-26T14:42:12.510Z,7.10
2019-01-26T14:44:17.396Z,7.10
2019-01-26T14:46:22.439Z,7.10
2019-01-26T14:48:27.847Z,7.10
2019-01-26T15:01:52.369Z,7.10
2019-01-26T15:03:58.181Z,7.00
2019-01-26T15:06:03.053Z,7.00
2019-01-26T15:10:57.597Z,7.10
2019-01-26T15:13:15.567Z,7.00
2019-01-26T15:16:06.153Z,7.10
2019-01-26T15:18:42.483Z,7.00
2019-01-26T15:20:47.986Z,7.00
2019-01-26T15:23:14.531Z,7.00
2019-01-26T15:25:17.541Z,6.80
2019-01-26T15:27:23.267Z,7.00
2019-01-26T15:29:42.353Z,7.00
2019-01-26T15:31:48.893Z,7.00
2019-01-26T15:34:18.029Z,7.00
2019-01-26T15:36:24.916Z,7.00
2019-01-26T15:38:51.307Z,6.90
2019-01-26T15:40:56.333Z,6.90
2019-01-26T15:43:18.660Z,6.90
2019-01-26T15:45:32.166Z,6.90
2019-01-26T15:47:57.066Z,6.80
2019-01-26T15:50:03.446Z,6.80
2019-01-26T15:52:08.509Z,6.80
2019-01-26T15:54:43.722Z,6.70
2019-01-26T15:57:23.500Z,6.80
2019-01-26T16:00:05.339Z,6.70
2019-01-26T16:02:11.374Z,6.70
2019-01-26T16:04:24.157Z,6.70
2019-01-26T16:06:28.822Z,6.70
2019-01-26T16:08:33.864Z,6.70
2019-01-26T16:10:38.919Z,6.60
2019-01-26T16:12:43.634Z,6.70
2019-01-26T16:14:48.486Z,6.60
2019-01-26T16:16:53.176Z,6.60
2019-01-26T16:18:58.258Z,6.60
2019-01-26T16:21:02.992Z,6.60
2019-01-26T16:23:09.530Z,6.60
2019-01-26T16:25:15.092Z,6.60
2019-01-26T16:27:19.889Z,6.60
2019-01-26T16:29:26.971Z,6.60
2019-01-26T16:31:31.508Z,6.60
2019-01-26T16:33:36.805Z,6.60
2019-01-26T16:35:41.903Z,6.50
2019-01-26T16:37:46.723Z,6.50
2019-01-26T16:39:52.655Z,6.50
2019-01-26T16:41:57.842Z,6.50
2019-01-26T16:44:02.689Z,6.50
2019-01-26T16:46:07.755Z,6.50
2019-01-26T16:48:14.235Z,6.50
2019-01-26T16:50:27.659Z,6.50
2019-01-26T16:52:34.879Z,6.50
2019-01-26T16:54:46.617Z,6.50
2019-01-26T16:57:02.102Z,6.50
2019-01-26T16:59:09.761Z,6.50
2019-01-26T17:01:14.923Z,6.40
2019-01-26T17:03:26.021Z,6.40
2019-01-26T17:05:32.064Z,6.40
2019-01-26T17:07:38.172Z,6.40
2019-01-26T17:09:46.335Z,6.40
2019-01-26T17:11:57.370Z,6.40
2019-01-26T17:14:04.135Z,6.40
2019-01-26T17:16:15.006Z,6.40
2019-01-26T17:18:21.708Z,6.40
2019-01-26T17:20:34.781Z,6.40
2019-01-26T17:22:36.016Z,6.40
2019-01-26T17:24:42.587Z,6.40
2019-01-26T17:26:52.838Z,6.40
2019-01-26T17:29:03.365Z,6.40
2019-01-26T17:31:09.426Z,6.40
2019-01-26T17:33:18.807Z,6.40
2019-01-26T17:35:24.552Z,6.40
2019-01-26T17:37:29.989Z,6.40
2019-01-26T17:39:36.739Z,6.40
2019-01-26T17:41:42.645Z,6.40
2019-01-26T17:43:49.147Z,6.30
2019-01-26T17:45:54.445Z,6.30
2019-01-26T17:48:00.683Z,6.30
2019-01-26T17:50:07.464Z,6.30
2019-01-26T17:52:12.703Z,6.30
2019-01-26T17:54:17.793Z,6.30
2019-01-26T17:56:27.035Z,6.30
2019-01-26T17:58:32.165Z,6.30
2019-01-26T18:00:44.194Z,6.30
2019-01-26T18:02:49.528Z,6.30
2019-01-26T18:04:54.397Z,6.30
2019-01-26T18:06:59.288Z,6.30
2019-01-26T18:09:05.193Z,6.30
2019-01-26T18:11:10.440Z,6.30
2019-01-26T18:13:15.642Z,6.30
2019-01-26T18:15:20.793Z,6.30
2019-01-26T18:17:25.554Z,6.30
2019-01-26T18:19:30.514Z,6.30
2019-01-26T18:21:35.315Z,6.30
2019-01-26T18:23:44.378Z,6.30
2019-01-26T18:25:49.640Z,6.30
2019-01-26T18:27:54.496Z,6.30
2019-01-26T18:29:59.386Z,6.30
2019-01-26T18:32:04.278Z,6.30
2019-01-26T18:34:09.363Z,6.30
2019-01-26T18:36:14.466Z,6.20
2019-01-26T18:38:19.260Z,6.20
2019-01-26T18:40:25.523Z,6.20
2019-01-26T18:42:30.422Z,6.20
2019-01-26T18:44:35.212Z,6.20
2019-01-26T18:46:39.885Z,6.20
2019-01-26T18:48:44.642Z,6.20
2019-01-26T18:50:56.162Z,6.20
2019-01-26T18:52:57.348Z,6.10
2019-01-26T18:55:02.069Z,6.20
2019-01-26T18:57:06.950Z,6.10
2019-01-26T18:59:11.693Z,6.20
2019-01-26T19:01:16.900Z,6.20
2019-01-26T19:03:58.748Z,6.10
2019-01-26T19:06:04.098Z,6.20
2019-01-26T19:08:11.436Z,6.10
2019-01-26T19:10:27.571Z,6.20
2019-01-26T19:12:32.068Z,6.20
2019-01-26T19:14:44.708Z,6.20
2019-01-26T19:18:38.454Z,6.20
2019-01-26T19:20:54.107Z,6.20
2019-01-26T19:23:37.974Z,6.20
2019-01-26T19:26:16.584Z,6.20
2019-01-26T19:35:27.861Z,6.20
2019-01-26T19:39:18.777Z,6.20
2019-01-26T19:40:35.626Z,6.20
2019-01-26T19:43:34.811Z,6.10
2019-01-26T19:46:04.119Z,6.20
2019-01-26T19:49:02.956Z,6.10
2019-01-26T19:51:20.598Z,6.10
2019-01-26T19:54:04.542Z,6.20
2019-01-26T19:59:12.391Z,6.20
2019-01-26T20:01:18.124Z,6.20
2019-01-26T20:03:34.558Z,6.20
2019-01-26T20:09:33.313Z,6.20
2019-01-26T20:11:58.966Z,6.20
2019-01-26T20:14:16.225Z,6.20
2019-01-26T20:16:38.320Z,6.20
2019-01-26T20:22:15.836Z,6.20
2019-01-26T20:24:22.983Z,6.20
2019-01-26T20:26:36.377Z,6.20
2019-01-26T20:28:54.257Z,6.10
2019-01-26T20:31:04.282Z,6.10
2019-01-26T20:33:32.230Z,6.10
2019-01-26T20:35:37.950Z,6.10
2019-01-26T20:37:47.766Z,6.10
2019-01-26T20:40:00.293Z,6.00
2019-01-26T20:42:25.654Z,6.00
2019-01-26T20:44:39.821Z,6.00
2019-01-26T20:46:54.734Z,6.00
2019-01-26T20:49:17.862Z,6.00
2019-01-26T20:51:37.875Z,6.00
2019-01-26T20:54:13.579Z,6.10
2019-01-26T20:59:23.840Z,6.10
2019-01-26T21:04:22.721Z,6.00
2019-01-26T21:07:11.545Z,6.00
2019-01-26T21:09:33.524Z,5.90
2019-01-26T21:11:49.582Z,5.90
2019-01-26T21:14:03.386Z,5.90
2019-01-26T21:18:55.823Z,5.90
2019-01-26T21:21:22.109Z,5.90
2019-01-26T21:23:36.187Z,6.00
2019-01-26T21:25:50.379Z,5.90
2019-01-26T21:28:24.476Z,6.00
2019-01-26T21:30:35.442Z,6.00
2019-01-26T21:32:59.426Z,6.00
2019-01-26T21:35:07.956Z,6.00
2019-01-26T21:37:18.873Z,6.00
2019-01-26T21:39:40.043Z,6.00
2019-01-26T21:41:49.578Z,6.00
2019-01-26T21:44:03.600Z,6.00
2019-01-26T21:46:40.415Z,6.00
2019-01-26T21:48:45.345Z,6.10
2019-01-26T21:50:50.322Z,6.10
2019-01-26T21:52:55.137Z,6.00
2019-01-26T21:55:00.201Z,6.00
2019-01-26T21:57:04.945Z,6.00
2019-01-26T21:59:09.949Z,6.00
2019-01-26T22:01:15.083Z,6.00
2019-01-26T22:03:19.894Z,6.00
2019-01-26T22:05:25.079Z,6.10
2019-01-26T22:07:30.201Z,6.10
2019-01-26T22:09:35.328Z,6.10
2019-01-26T22:11:40.936Z,6.10
2019-01-26T22:13:45.866Z,6.20
2019-01-26T22:15:50.594Z,6.20
2019-01-26T22:17:55.829Z,6.10
2019-01-26T22:20:00.660Z,6.10
2019-01-26T22:22:05.497Z,6.10
2019-01-26T22:24:10.271Z,6.10
2019-01-26T22:26:15.009Z,6.10
2019-01-26T22:28:20.190Z,6.20
2019-01-26T22:30:26.838Z,6.20
2019-01-26T22:32:31.715Z,6.30
2019-01-26T22:34:36.996Z,6.20
2019-01-26T22:36:45.177Z,6.20
2019-01-26T22:38:49.958Z,6.30
2019-01-26T22:40:55.433Z,6.20
2019-01-26T22:43:00.757Z,6.20
2019-01-26T22:45:06.278Z,6.30
2019-01-26T22:47:11.273Z,6.30
2019-01-26T22:49:17.833Z,6.30
2019-01-26T22:51:23.030Z,6.30
2019-01-26T22:53:27.785Z,6.30
2019-01-26T22:55:33.719Z,6.30
2019-01-26T22:57:38.603Z,6.30
2019-01-26T22:59:43.506Z,6.30
2019-01-26T23:01:48.552Z,6.30
2019-01-26T23:04:12.289Z,6.30
2019-01-26T23:07:07.068Z,6.30
2019-01-26T23:09:22.579Z,6.30
2019-01-26T23:12:00.228Z,6.30
2019-01-26T23:14:43.679Z,6.30
2019-01-26T23:17:21.810Z,6.30
2019-01-26T23:19:36.093Z,6.30
2019-01-26T23:22:23.538Z,6.40
2019-01-26T23:25:07.135Z,6.30
2019-01-26T23:27:34.983Z,6.30
2019-01-26T23:30:23.907Z,6.30
2019-01-26T23:32:28.653Z,6.40
2019-01-26T23:34:33.717Z,6.40
2019-01-26T23:36:38.507Z,6.30
2019-01-26T23:38:43.226Z,6.40
2019-01-26T23:40:48.171Z,6.40
2019-01-26T23:42:53.258Z,6.40
2019-01-26T23:44:58.021Z,6.40
2019-01-26T23:47:02.793Z,6.40
2019-01-26T23:49:07.606Z,6.40
2019-01-26T23:51:12.932Z,6.30
2019-01-26T23:53:17.666Z,6.30
2019-01-26T23:55:22.365Z,6.40
2019-01-26T23:57:27.178Z,6.40
2019-01-26T23:59:31.927Z,6.40
